Time;durP1;ratioP1;P1;durP2;ratioP2;P2;SDS_P1;SDS_P2;PMS_P1;PMS_P2;Temp;Humidity;BMP_temperature;BMP_pressure;BME280_temperature;BME280_humidity;BME280_pressure;Samples;Min_cycle;Max_cycle;Signal;HPM_P1;HPM_P2
2022/01/24 00:02:18;;;;;;;1.70;0.90;;;7.90;1.00;8.40;102272.00;;;;5097387;28;20455;-81
2022/01/24 00:04:48;;;;;;;1.70;0.87;;;7.80;1.00;8.40;102276.00;;;;5104454;28;20563;-81
2022/01/24 00:07:20;;;;;;;1.60;0.90;;;7.90;1.00;8.50;102286.00;;;;5105325;27;20453;-79
2022/01/24 00:09:49;;;;;;;1.60;0.90;;;7.90;1.00;8.60;102281.00;;;;5103535;28;20472;-79
2022/01/24 00:12:24;;;;;;;1.50;0.97;;;8.00;1.00;8.60;68165.00;;;;5098465;28;20446;-79
2022/01/24 00:15:06;;;;;;;1.60;0.93;;;8.10;1.00;8.60;68168.00;;;;5111498;28;21079;-80
2022/01/24 00:17:37;;;;;;;1.43;0.90;;;8.10;1.00;8.60;102283.00;;;;5111296;28;20476;-79
2022/01/24 00:28:40;;;;;;;1.83;1.20;;;8.30;1.00;8.70;102276.00;;;;5093096;28;20471;-80
2022/01/24 00:31:10;;;;;;;1.67;1.10;;;8.20;1.00;8.60;102276.00;;;;5113947;28;20461;-80
2022/01/24 00:33:39;;;;;;;1.83;1.30;;;8.00;1.00;8.60;102282.00;;;;5115736;28;20480;-79
2022/01/24 00:36:07;;;;;;;1.43;0.90;;;8.00;1.00;8.70;102287.00;;;;5119991;28;20688;-79
2022/01/24 00:38:35;;;;;;;2.30;1.40;;;8.00;1.00;8.70;102281.00;;;;5120060;28;20465;-79
2022/01/24 00:41:04;;;;;;;2.10;1.17;;;8.10;1.00;8.70;68184.00;;;;5129192;27;20483;-80
2022/01/24 00:43:49;;;;;;;2.23;1.20;;;8.20;1.00;52.70;160430.00;;;;5107622;28;20473;-80
2022/01/24 00:46:31;;;;;;;2.00;1.20;;;8.10;1.00;8.70;102281.00;;;;5109431;28;20446;-80
2022/01/24 00:49:19;;;;;;;2.50;1.47;;;8.20;1.00;8.70;102292.00;;;;5114328;28;20468;-80
2022/01/24 00:54:47;;;;;;;2.53;1.73;;;7.90;1.00;8.60;102287.00;;;;5114819;28;20473;-79
2022/01/24 00:57:16;;;;;;;2.20;1.30;;;7.90;1.00;8.60;102281.00;;;;5108365;28;20445;-80
2022/01/24 00:59:44;;;;;;;2.37;1.40;;;8.00;1.00;8.60;102281.00;;;;5128918;27;20453;-81
2022/01/24 01:02:15;;;;;;;2.33;1.20;;;7.80;1.00;8.60;102270.00;;;;5115926;27;21247;-80
2022/01/24 01:04:58;;;;;;;2.90;1.70;;;7.80;1.00;8.50;102286.00;;;;5113462;28;20736;-79
2022/01/24 01:07:33;;;;;;;2.13;1.30;;;7.70;1.00;8.50;102281.00;;;;5109465;28;20459;-78
2022/01/24 01:18:22;;;;;;;1.90;1.20;;;7.70;1.00;8.50;102300.00;;;;5110959;28;20457;-79
2022/01/24 01:23:43;;;;;;;1.30;0.90;;;7.90;1.00;8.50;102300.00;;;;5106353;28;20461;-78
2022/01/24 01:26:21;;;;;;;1.30;0.80;;;7.70;1.00;8.40;68129.00;;;;5106228;28;20971;-79
2022/01/24 01:28:55;;;;;;;1.70;1.03;;;7.70;1.00;8.40;102283.00;;;;5104733;28;20453;-82
2022/01/24 01:31:34;;;;;;;1.97;1.10;;;7.60;1.00;8.40;102302.00;;;;5110375;28;20491;-81
2022/01/24 01:34:14;;;;;;;1.50;0.90;;;7.60;1.00;8.30;68110.00;;;;5101693;28;20461;-80
2022/01/24 01:37:07;;;;;;;1.90;1.30;;;7.80;1.00;8.40;68121.00;;;;5103932;28;20492;-80
2022/01/24 01:39:55;;;;;;;2.13;1.30;;;7.70;1.00;8.40;68126.00;;;;5104221;28;20997;-81
2022/01/24 01:56:11;;;;;;;1.83;1.20;;;7.70;1.00;217.30;160335.00;;;;5098680;28;20469;-80
2022/01/24 01:58:40;;;;;;;1.70;1.03;;;7.80;1.00;8.50;68134.00;;;;5106034;28;20456;-79
2022/01/24 02:01:08;;;;;;;1.57;1.00;;;7.70;1.00;8.50;68131.00;;;;5105547;28;20532;-79
2022/01/24 02:03:37;;;;;;;1.73;0.97;;;7.60;1.00;8.50;102277.00;;;;5104417;28;20491;-80
2022/01/24 02:06:06;;;;;;;1.80;1.20;;;7.70;1.00;8.40;102266.00;;;;5101828;28;20496;-80
2022/01/24 02:08:37;;;;;;;1.73;1.20;;;7.90;1.00;8.40;102267.00;;;;5116831;28;20441;-82
2022/01/24 02:11:05;;;;;;;1.70;1.03;;;7.50;1.00;8.40;102253.00;;;;5118216;28;20885;-79
2022/01/24 02:13:35;;;;;;;1.50;0.93;;;7.70;1.00;8.40;102258.00;;;;5116470;28;20473;-81
2022/01/24 02:16:12;;;;;;;2.70;1.40;;;7.70;1.00;8.50;102260.00;;;;5104576;28;20851;-81
2022/01/24 02:18:48;;;;;;;1.30;0.90;;;7.80;1.00;8.50;102275.00;;;;5119233;28;20958;-80
2022/01/24 02:21:40;;;;;;;2.00;1.20;;;7.80;1.00;8.40;102263.00;;;;5107836;28;21008;-78
2022/01/24 02:24:10;;;;;;;2.60;1.20;;;7.70;1.00;8.30;102277.00;;;;5103731;28;20489;-81
2022/01/24 02:26:39;;;;;;;1.93;1.33;;;7.60;1.00;8.30;102279.00;;;;5103059;28;20453;-80
2022/01/24 02:29:14;;;;;;;2.70;1.30;;;7.50;1.00;8.30;102260.00;;;;5105848;28;20464;-80
2022/01/24 02:31:45;;;;;;;2.20;1.10;;;7.60;1.00;8.30;102270.00;;;;5105676;28;20457;-81
2022/01/24 02:34:25;;;;;;;1.37;0.97;;;7.60;1.00;8.30;102267.00;;;;5100879;28;20507;-79
2022/01/24 02:36:56;;;;;;;1.60;1.07;;;7.60;1.00;8.30;68102.00;;;;5105516;28;20541;-79
2022/01/24 02:51:05;;;;;;;1.30;0.90;;;7.30;1.00;8.20;102266.00;;;;5109905;28;20456;-80
2022/01/24 02:53:35;;;;;;;1.40;0.97;;;7.40;1.00;52.70;160230.00;;;;5106982;28;20856;-80
2022/01/24 02:56:05;;;;;;;1.97;1.40;;;7.50;1.00;8.20;102281.00;;;;5104075;28;20559;-81
2022/01/24 02:58:34;;;;;;;1.67;1.20;;;7.50;1.00;8.20;68081.00;;;;5108367;28;20507;-81
2022/01/24 03:01:06;;;;;;;2.00;1.17;;;7.40;1.00;8.20;102287.00;;;;5110825;28;20517;-79
2022/01/24 03:03:36;;;;;;;2.03;1.40;;;7.50;1.00;8.20;102265.00;;;;5114211;28;21134;-79
2022/01/24 03:06:05;;;;;;;2.40;1.30;;;7.50;1.00;8.20;102253.00;;;;5112527;28;20463;-79
2022/01/24 03:08:38;;;;;;;1.80;1.07;;;7.40;1.00;8.20;102259.00;;;;5104567;28;20461;-79
2022/01/24 03:11:06;;;;;;;1.40;1.10;;;7.40;1.00;8.20;102250.00;;;;5111267;28;20468;-79
2022/01/24 03:13:34;;;;;;;1.50;1.00;;;7.50;1.00;8.20;102248.00;;;;5109258;28;20477;-79
2022/01/24 03:16:06;;;;;;;1.30;1.00;;;7.50;1.00;8.30;102252.00;;;;5124846;27;20485;-79
2022/01/24 03:18:35;;;;;;;1.73;1.00;;;7.60;1.00;8.30;102247.00;;;;5122301;28;20437;-79
2022/01/24 03:21:05;;;;;;;1.47;1.10;;;7.60;1.00;8.20;102231.00;;;;5139947;27;20434;-78
2022/01/24 03:23:35;;;;;;;1.43;0.90;;;7.50;1.00;8.30;102240.00;;;;5122915;28;20567;-80
2022/01/24 03:26:03;;;;;;;1.37;1.00;;;7.60;1.00;8.40;102234.00;;;;5116308;28;20445;-79
2022/01/24 03:28:31;;;;;;;2.00;0.97;;;7.80;1.00;8.40;102242.00;;;;5125454;28;20540;-79
2022/01/24 03:31:00;;;;;;;1.30;0.80;;;7.80;1.00;8.30;102237.00;;;;5142172;27;20530;-80
2022/01/24 03:33:28;;;;;;;2.70;0.77;;;7.80;1.00;8.10;102240.00;;;;5122182;28;20476;-80
2022/01/24 03:35:56;;;;;;;1.30;0.90;;;7.40;1.00;8.20;102230.00;;;;5120622;28;20568;-82
2022/01/24 03:38:24;;;;;;;1.70;1.00;;;7.40;1.00;8.20;102227.00;;;;5117106;28;20453;-80
2022/01/24 03:40:54;;;;;;;2.77;1.70;;;7.50;1.00;8.30;102235.00;;;;5110740;28;20953;-80
2022/01/24 03:43:22;;;;;;;1.73;1.13;;;7.60;1.00;8.20;102237.00;;;;5114324;28;20878;-82
2022/01/24 03:46:11;;;;;;;1.60;0.90;;;7.50;1.00;8.20;102228.00;;;;5111019;28;20473;-81
2022/01/24 03:48:44;;;;;;;1.60;1.20;;;7.40;1.00;8.20;102230.00;;;;5111168;28;20494;-81
2022/01/24 03:51:14;;;;;;;3.67;1.10;;;7.60;1.00;8.20;102211.00;;;;5109496;28;20457;-81
2022/01/24 03:53:45;;;;;;;1.60;1.00;;;7.30;1.00;8.10;102218.00;;;;5108739;28;20473;-81
2022/01/24 03:56:14;;;;;;;1.67;0.90;;;7.30;1.00;8.20;102236.00;;;;5124184;27;20472;-80
2022/01/24 03:58:44;;;;;;;2.80;1.20;;;7.40;1.00;8.20;102223.00;;;;5122645;27;20460;-82
2022/01/24 04:01:13;;;;;;;1.80;0.93;;;7.70;1.00;8.20;102227.00;;;;5106278;28;20445;-81
2022/01/24 04:03:42;;;;;;;1.97;1.17;;;7.50;1.00;8.30;102220.00;;;;5118415;28;20467;-81
2022/01/24 04:06:10;;;;;;;1.17;0.80;;;7.60;1.00;8.20;102237.00;;;;5119074;28;20453;-79
2022/01/24 04:08:39;;;;;;;3.20;1.10;;;7.40;1.00;8.20;102227.00;;;;5114051;28;20445;-80
2022/01/24 04:11:11;;;;;;;1.20;0.87;;;7.40;1.00;8.00;102214.00;;;;5111723;27;20460;-82
2022/01/24 04:13:43;;;;;;;1.70;1.17;;;7.20;1.00;8.00;102235.00;;;;5107583;27;20472;-81
2022/01/24 04:16:25;;;;;;;2.43;1.20;;;7.30;1.00;8.10;102216.00;;;;5104932;28;20475;-81
2022/01/24 04:19:01;;;;;;;1.30;1.03;;;7.30;1.00;8.10;102212.00;;;;5105077;28;20461;-81
2022/01/24 04:21:31;;;;;;;1.90;0.83;;;7.30;1.00;8.20;102220.00;;;;5106712;28;20449;-80
2022/01/24 04:24:05;;;;;;;1.40;1.10;;;7.50;1.00;8.30;102217.00;;;;5105181;28;20973;-80
2022/01/24 04:26:35;;;;;;;1.90;1.13;;;7.60;1.00;8.20;102213.00;;;;5105052;28;20449;-80
2022/01/24 04:29:08;;;;;;;1.73;1.07;;;7.50;1.00;8.20;68075.00;;;;5108902;28;20465;-81
2022/01/24 04:31:37;;;;;;;1.90;1.37;;;7.40;1.00;217.30;160212.00;;;;5109650;28;20453;-80
2022/01/24 04:34:06;;;;;;;2.17;1.20;;;7.50;1.00;8.00;102209.00;;;;5109948;28;20476;-80
2022/01/24 04:36:34;;;;;;;1.60;1.10;;;7.30;1.00;217.30;160133.00;;;;5104131;28;20461;-80
2022/01/24 04:39:05;;;;;;;1.50;1.00;;;7.20;1.00;8.00;102213.00;;;;5104708;28;20457;-82
2022/01/24 04:41:37;;;;;;;1.40;0.90;;;7.30;1.00;8.00;68033.00;;;;5103873;28;20471;-80
2022/01/24 04:44:16;;;;;;;1.50;1.03;;;7.50;1.00;217.30;160160.00;;;;5103484;28;20491;-81
2022/01/24 04:46:52;;;;;;;1.80;1.10;;;7.40;1.00;8.20;102203.00;;;;5121731;27;20465;-80
2022/01/24 04:52:19;;;;;;;1.60;1.00;;;7.70;1.00;8.20;102196.00;;;;5113523;28;20548;-81
2022/01/24 04:54:47;;;;;;;1.77;1.27;;;7.70;1.00;8.30;102210.00;;;;5115479;28;21376;-82
2022/01/24 04:57:18;;;;;;;1.40;1.10;;;7.80;1.00;8.30;102203.00;;;;5117650;28;20477;-82
2022/01/24 04:59:50;;;;;;;1.17;0.83;;;7.80;1.00;8.30;102201.00;;;;5116259;28;20464;-82
2022/01/24 05:02:20;;;;;;;1.57;1.00;;;7.80;1.00;8.30;102187.00;;;;5111307;28;20461;-81
2022/01/24 05:04:49;;;;;;;4.90;1.53;;;7.80;1.00;8.20;102193.00;;;;5109714;28;21013;-80
2022/01/24 05:07:18;;;;;;;1.40;1.00;;;7.60;1.00;8.30;102204.00;;;;5108473;28;20457;-80
2022/01/24 05:09:53;;;;;;;1.23;0.93;;;7.70;1.00;8.30;102185.00;;;;5109048;28;20452;-80
2022/01/24 05:12:30;;;;;;;2.00;1.40;;;7.70;1.00;8.30;102186.00;;;;5106486;28;20445;-80
2022/01/24 05:23:29;;;;;;;1.90;1.50;;;7.50;1.00;8.20;102203.00;;;;5122077;28;20476;-82
2022/01/24 05:25:59;;;;;;;3.77;1.27;;;7.50;1.00;8.20;102202.00;;;;5110162;28;20469;-79
2022/01/24 05:28:29;;;;;;;1.60;1.40;;;7.40;1.00;8.20;102199.00;;;;5106783;28;20453;-80
2022/01/24 05:30:59;;;;;;;2.47;1.30;;;7.50;1.00;8.30;102193.00;;;;5111633;28;20441;-80
2022/01/24 05:33:29;;;;;;;2.50;2.10;;;7.60;1.00;8.20;102194.00;;;;5112978;28;20560;-80
2022/01/24 05:35:58;;;;;;;3.60;1.50;;;7.60;1.00;8.20;102202.00;;;;5117534;28;20445;-81
2022/01/24 05:38:26;;;;;;;2.60;1.23;;;7.50;1.00;217.30;160234.00;;;;5116509;28;20473;-82
2022/01/24 05:40:55;;;;;;;1.90;1.63;;;7.70;1.00;8.30;102217.00;;;;5118058;28;20453;-81
2022/01/24 05:43:23;;;;;;;2.00;1.60;;;7.60;1.00;8.20;102202.00;;;;5104871;28;20465;-82
2022/01/24 05:45:52;;;;;;;2.80;1.50;;;7.50;1.00;8.20;68075.00;;;;5106085;28;20461;-81
2022/01/24 05:48:21;;;;;;;1.70;1.20;;;7.50;1.00;8.30;101909.00;;;;5105238;28;20463;-80
2022/01/24 05:50:50;;;;;;;1.50;1.20;;;7.80;1.00;8.30;102211.00;;;;5101563;28;20485;-80
2022/01/24 05:53:18;;;;;;;2.57;1.43;;;7.80;1.00;8.20;102216.00;;;;5103651;28;20477;-81
2022/01/24 05:55:46;;;;;;;2.60;1.47;;;7.60;1.00;8.20;102208.00;;;;5103649;28;20965;-80
2022/01/24 05:58:14;;;;;;;2.73;1.80;;;7.50;1.00;8.10;102224.00;;;;5116470;28;20850;-80
2022/01/24 06:00:43;;;;;;;3.10;1.40;;;7.40;1.00;8.00;102216.00;;;;5103721;28;20460;-80
2022/01/24 06:03:11;;;;;;;2.40;1.53;;;7.30;1.00;7.90;68012.00;;;;5104175;28;20488;-81
2022/01/24 06:05:41;;;;;;;1.30;0.90;;;7.10;1.00;7.80;68002.00;;;;5104099;28;20533;-83
2022/01/24 06:08:09;;;;;;;1.60;1.20;;;7.10;1.00;7.90;102218.00;;;;5105783;28;20457;-82
2022/01/24 06:10:39;;;;;;;4.97;1.40;;;7.00;1.00;7.90;102214.00;;;;5103741;28;20461;-82
2022/01/24 06:13:07;;;;;;;1.63;1.13;;;7.00;1.00;8.00;102221.00;;;;5107491;28;20473;-81
2022/01/24 06:15:35;;;;;;;1.50;1.30;;;7.20;1.00;8.10;102218.00;;;;5108701;28;20961;-79
2022/01/24 06:18:04;;;;;;;2.17;1.40;;;7.30;1.00;8.10;102218.00;;;;5107867;28;21018;-80
2022/01/24 06:20:32;;;;;;;1.97;1.30;;;7.50;1.00;8.20;102226.00;;;;5112673;28;20460;-82
2022/01/24 06:23:02;;;;;;;3.17;1.40;;;7.60;1.00;8.20;102227.00;;;;5110398;28;20445;-81
2022/01/24 06:25:30;;;;;;;1.87;1.37;;;7.50;1.00;8.10;102227.00;;;;5110178;28;20449;-81
2022/01/24 06:27:58;;;;;;;1.63;1.20;;;7.30;1.00;8.10;102232.00;;;;5109218;28;20457;-80
2022/01/24 06:30:27;;;;;;;2.70;1.73;;;7.20;1.00;8.00;68033.00;;;;5111841;28;21642;-80
2022/01/24 06:32:55;;;;;;;3.40;2.23;;;7.20;1.00;8.00;102228.00;;;;5116045;28;20441;-81
2022/01/24 06:35:23;;;;;;;2.30;1.77;;;7.20;1.00;8.00;102236.00;;;;5115722;28;20448;-80
2022/01/24 06:37:52;;;;;;;1.77;1.40;;;7.10;1.00;8.00;102229.00;;;;5114107;28;20469;-80
2022/01/24 06:40:21;;;;;;;2.27;1.30;;;7.10;1.00;8.00;102243.00;;;;5107742;28;20469;-83
2022/01/24 06:42:51;;;;;;;2.20;1.67;;;7.30;1.00;8.00;102252.00;;;;5106183;28;20457;-81
2022/01/24 06:45:19;;;;;;;4.23;1.70;;;7.10;1.00;8.10;102264.00;;;;5110818;28;20445;-80
2022/01/24 06:47:48;;;;;;;1.73;1.50;;;7.20;1.00;8.10;102261.00;;;;5107832;28;20506;-80
2022/01/24 06:50:16;;;;;;;1.90;1.40;;;7.30;1.00;8.10;102254.00;;;;5105810;28;20467;-80
2022/01/24 06:52:45;;;;;;;3.10;1.80;;;7.30;1.00;8.20;102251.00;;;;5108016;28;20457;-80
2022/01/24 06:55:14;;;;;;;1.97;1.47;;;7.50;1.00;217.30;160218.00;;;;5120656;27;21417;-81
2022/01/24 06:57:44;;;;;;;2.53;1.87;;;7.60;1.00;8.20;102260.00;;;;5128477;27;20476;-81
2022/01/24 07:00:13;;;;;;;2.70;1.50;;;7.50;1.00;8.20;102266.00;;;;5115846;28;20620;-80
2022/01/24 07:02:42;;;;;;;4.33;2.10;;;7.60;1.00;8.20;68081.00;;;;5115679;28;20533;-81
2022/01/24 07:05:10;;;;;;;2.30;1.63;;;7.60;1.00;8.20;102270.00;;;;5129811;27;20850;-81
2022/01/24 07:07:39;;;;;;;2.83;2.13;;;7.50;1.00;8.20;102269.00;;;;5113318;27;20465;-81
2022/01/24 07:10:08;;;;;;;3.00;1.97;;;7.70;1.00;8.20;102256.00;;;;5119265;28;20462;-80
2022/01/24 07:12:57;;;;;;;2.57;1.80;;;7.50;1.00;8.30;102265.00;;;;5136150;27;20823;-79
2022/01/24 07:15:32;;;;;;;3.67;2.00;;;7.60;1.00;8.30;102269.00;;;;5136066;27;20548;-79
2022/01/24 07:18:16;;;;;;;2.93;1.63;;;7.60;1.00;52.70;160234.00;;;;5114059;28;20580;-80
2022/01/24 07:20:45;;;;;;;3.30;1.80;;;7.50;1.00;8.20;102261.00;;;;5111331;28;20440;-80
2022/01/24 07:23:13;;;;;;;2.83;1.70;;;7.40;1.00;8.20;102269.00;;;;5123428;27;20481;-79
2022/01/24 07:25:44;;;;;;;3.23;1.67;;;7.30;1.00;8.10;102261.00;;;;5111166;28;20465;-80
2022/01/24 07:28:16;;;;;;;2.93;1.70;;;7.30;1.00;8.00;102265.00;;;;5128381;27;20461;-80
2022/01/24 07:30:46;;;;;;;3.40;1.80;;;7.20;1.00;8.00;102262.00;;;;5115996;28;20495;-80
2022/01/24 07:33:16;;;;;;;2.93;1.70;;;7.20;1.00;8.10;102259.00;;;;5111911;28;20476;-79
2022/01/24 07:35:46;;;;;;;4.13;1.50;;;7.30;1.00;8.20;102259.00;;;;5118400;28;20452;-80
2022/01/24 07:38:14;;;;;;;3.00;1.60;;;7.40;1.00;8.20;102252.00;;;;5129512;28;20465;-85
2022/01/24 07:40:47;;;;;;;2.33;1.80;;;7.50;1.00;8.30;102258.00;;;;5129266;28;20460;-82
2022/01/24 07:43:17;;;;;;;3.73;1.50;;;7.60;1.00;8.20;102263.00;;;;5124448;28;20476;-79
2022/01/24 07:45:48;;;;;;;3.10;1.50;;;7.50;1.00;8.30;102235.00;;;;5125582;28;20448;-81
2022/01/24 07:48:18;;;;;;;1.60;1.27;;;7.50;1.00;8.30;102249.00;;;;5125207;28;20465;-82
2022/01/24 07:50:51;;;;;;;1.87;1.30;;;7.70;1.00;8.20;102263.00;;;;5134907;27;20450;-80
2022/01/24 07:53:22;;;;;;;1.40;1.17;;;7.50;1.00;8.10;102266.00;;;;5111681;28;20477;-80
2022/01/24 07:56:11;;;;;;;2.40;1.80;;;7.30;1.00;8.00;102276.00;;;;5109978;28;20503;-81
2022/01/24 07:58:43;;;;;;;2.07;1.50;;;7.20;1.00;8.10;102274.00;;;;5107642;28;20780;-80
2022/01/24 08:01:12;;;;;;;4.20;1.13;;;7.20;1.00;8.10;102259.00;;;;5121732;27;20445;-81
2022/01/24 08:03:41;;;;;;;2.43;1.37;;;7.40;1.00;8.30;102258.00;;;;5109239;28;20484;-80
2022/01/24 08:06:09;;;;;;;5.03;1.30;;;7.60;1.00;8.40;102248.00;;;;5111793;28;20460;-81
2022/01/24 08:08:38;;;;;;;2.33;1.20;;;7.80;1.00;8.50;102259.00;;;;5106542;28;20469;-80
2022/01/24 08:11:06;;;;;;;2.90;1.60;;;7.90;1.00;8.40;102269.00;;;;5104132;28;20441;-81
2022/01/24 08:13:36;;;;;;;2.63;1.60;;;7.80;1.00;8.50;102274.00;;;;5107172;28;20506;-80
2022/01/24 08:16:06;;;;;;;2.50;1.50;;;7.80;1.00;8.60;68165.00;;;;5106540;28;20784;-81
2022/01/24 08:18:34;;;;;;;19.43;12.20;;;8.00;1.00;8.70;102277.00;;;;5105230;28;20530;-82
2022/01/24 08:21:03;;;;;;;2.67;1.70;;;8.10;1.00;8.70;102272.00;;;;5107922;28;20456;-82
2022/01/24 08:23:32;;;;;;;3.63;1.60;;;8.10;1.00;8.50;102264.00;;;;5111186;28;20472;-81
2022/01/24 08:26:00;;;;;;;1.50;1.20;;;7.80;1.00;8.50;102263.00;;;;5112815;28;20467;-81
2022/01/24 08:28:28;;;;;;;3.00;1.67;;;7.80;1.00;8.50;102276.00;;;;5116453;27;20469;-80
2022/01/24 08:30:57;;;;;;;4.23;1.40;;;7.80;1.00;52.70;160414.00;;;;5115152;28;20552;-80
2022/01/24 08:33:27;;;;;;;2.87;1.70;;;8.10;1.00;217.30;160436.00;;;;5109663;28;20544;-79
2022/01/24 08:35:56;;;;;;;2.13;1.23;;;8.10;1.00;8.70;102272.00;;;;5108775;28;20459;-81
2022/01/24 08:38:26;;;;;;;2.43;1.10;;;8.00;1.00;8.50;102277.00;;;;5106750;28;20493;-81
2022/01/24 08:40:56;;;;;;;4.67;1.67;;;7.80;1.00;8.50;102274.00;;;;5110721;28;20447;-82
2022/01/24 08:43:38;;;;;;;4.00;1.77;;;7.70;1.00;8.60;102279.00;;;;5108806;28;20559;-83
2022/01/24 08:46:07;;;;;;;2.33;1.63;;;7.70;1.00;8.60;102285.00;;;;5119045;27;20477;-80
2022/01/24 08:48:37;;;;;;;2.87;1.20;;;7.80;1.00;8.60;102275.00;;;;5106672;28;20449;-82
2022/01/24 08:51:06;;;;;;;2.40;1.47;;;7.80;1.00;217.30;160430.00;;;;5106213;28;20449;-80
2022/01/24 08:53:36;;;;;;;1.80;1.23;;;7.90;1.00;8.80;68203.00;;;;5106473;28;20477;-79
2022/01/24 08:56:07;;;;;;;1.77;1.40;;;8.00;1.00;8.90;102273.00;;;;5106278;28;20475;-81
2022/01/24 08:58:36;;;;;;;1.70;1.30;;;8.30;1.00;8.80;102292.00;;;;5123217;27;20560;-82
2022/01/24 09:01:05;;;;;;;2.47;1.47;;;8.10;1.00;8.70;102304.00;;;;5104556;28;20540;-80
2022/01/24 09:03:39;;;;;;;1.80;1.33;;;7.90;1.00;8.60;102304.00;;;;5110796;28;20472;-82
2022/01/24 09:06:10;;;;;;;2.30;1.60;;;7.80;1.00;8.40;102290.00;;;;5107273;28;20537;-80
2022/01/24 09:08:38;;;;;;;2.33;1.83;;;7.70;1.00;8.40;102293.00;;;;5108403;28;21110;-79
2022/01/24 09:11:07;;;;;;;3.90;3.10;;;7.60;1.00;8.50;102306.00;;;;5109080;28;20501;-81
2022/01/24 09:13:36;;;;;;;3.03;2.20;;;7.70;1.00;8.60;102289.00;;;;5108655;28;20476;-80
2022/01/24 09:16:05;;;;;;;3.33;1.60;;;8.00;1.00;8.80;102296.00;;;;5119677;27;20974;-81
2022/01/24 09:18:34;;;;;;;3.17;2.60;;;8.20;1.00;8.80;102153.00;;;;5106088;28;20484;-80
2022/01/24 09:21:03;;;;;;;5.17;1.60;;;8.30;1.00;9.00;102299.00;;;;5106438;28;20453;-81
2022/01/24 09:23:32;;;;;;;2.20;1.70;;;8.40;1.00;9.10;102283.00;;;;5112792;28;20540;-81
2022/01/24 09:26:00;;;;;;;3.67;2.20;;;8.50;1.00;8.80;102283.00;;;;5120435;28;20512;-79
2022/01/24 09:28:31;;;;;;;3.53;2.03;;;8.20;1.00;217.30;160452.00;;;;5121574;28;21011;-80
2022/01/24 09:30:59;;;;;;;3.67;1.70;;;8.10;1.00;8.60;102288.00;;;;5122485;28;20459;-80
2022/01/24 09:33:28;;;;;;;3.17;1.80;;;7.90;1.00;8.70;102297.00;;;;5123194;27;20496;-81
2022/01/24 09:35:59;;;;;;;2.80;1.90;;;7.90;1.00;8.80;102286.00;;;;5105976;28;20469;-80
2022/01/24 09:38:33;;;;;;;3.67;2.63;;;8.00;1.00;8.80;102283.00;;;;5123701;27;20543;-80
2022/01/24 09:41:09;;;;;;;2.90;2.40;;;8.10;1.00;9.00;68258.00;;;;5109556;28;20488;-79
2022/01/24 09:43:37;;;;;;;2.60;1.80;;;8.30;1.00;9.10;68281.00;;;;5107993;28;20468;-81
2022/01/24 09:46:08;;;;;;;3.87;2.63;;;8.50;1.00;9.20;102288.00;;;;5108528;28;20457;-80
2022/01/24 09:48:39;;;;;;;4.30;2.33;;;8.60;1.00;9.30;68332.00;;;;5111782;28;20557;-80
2022/01/24 09:51:09;;;;;;;2.27;1.63;;;8.80;1.00;217.30;160688.00;;;;5120089;28;20444;-80
2022/01/24 09:53:39;;;;;;;3.40;1.87;;;8.60;1.00;217.30;160611.00;;;;5114279;28;20475;-81
2022/01/24 09:56:08;;;;;;;2.43;1.93;;;8.70;1.00;9.20;68308.00;;;;5115450;28;20459;-81
2022/01/24 09:58:38;;;;;;;2.63;1.97;;;8.60;1.00;9.40;102267.00;;;;5113652;28;20448;-80
2022/01/24 10:01:09;;;;;;;2.73;1.87;;;8.70;1.00;9.60;102274.00;;;;5115280;28;20497;-80
2022/01/24 10:03:38;;;;;;;3.17;2.23;;;8.90;1.00;9.70;102276.00;;;;5123243;28;20465;-80
2022/01/24 10:06:12;;;;;;;3.13;2.00;;;9.20;1.00;9.80;102265.00;;;;5126573;28;20453;-79
2022/01/24 10:08:42;;;;;;;6.43;2.20;;;9.30;1.00;9.80;102259.00;;;;5143409;27;20449;-80
2022/01/24 10:11:18;;;;;;;2.93;2.20;;;9.20;1.00;9.80;102278.00;;;;5118477;28;20450;-81
2022/01/24 10:16:37;;;;;;;3.27;2.73;;;9.30;1.00;9.90;102268.00;;;;5114073;28;20448;-81
2022/01/24 10:19:13;;;;;;;2.67;2.43;;;9.40;1.00;9.80;102264.00;;;;5113714;28;20463;-80
2022/01/24 10:22:01;;;;;;;6.40;3.03;;;9.30;1.00;9.80;102264.00;;;;5111201;28;20526;-81
2022/01/24 10:24:36;;;;;;;8.70;2.43;;;9.30;1.00;9.80;102277.00;;;;5112325;28;20465;-81
2022/01/24 10:27:16;;;;;;;4.50;2.57;;;9.30;1.00;9.90;102286.00;;;;5112796;28;20470;-80
2022/01/24 10:29:54;;;;;;;6.00;2.63;;;9.30;1.00;10.10;102292.00;;;;5118824;27;20460;-80
2022/01/24 10:32:37;;;;;;;4.73;3.00;;;9.40;1.00;10.10;102279.00;;;;5113144;28;20453;-80
2022/01/24 10:35:31;;;;;;;3.73;2.60;;;9.50;1.00;10.00;102272.00;;;;5110555;28;20465;-81
2022/01/24 10:38:39;;;;;;;8.50;3.07;;;9.30;1.00;217.30;160982.00;;;;5113307;28;20472;-80
2022/01/24 10:41:18;;;;;;;7.90;3.20;;;9.40;1.00;10.00;102280.00;;;;5047650;28;20475;-82
2022/01/24 10:43:49;;;;;;;4.83;3.83;;;9.20;1.00;10.00;102260.00;;;;5111967;27;20996;-81
2022/01/24 10:46:24;;;;;;;5.40;3.67;;;9.30;1.00;10.00;68480.00;;;;5114359;28;20449;-81
2022/01/24 10:49:04;;;;;;;4.13;3.73;;;9.40;1.00;9.90;102283.00;;;;5111243;28;20456;-81
2022/01/24 10:51:39;;;;;;;4.77;3.23;;;9.20;1.00;10.00;102269.00;;;;5112420;28;20447;-82
2022/01/24 10:54:08;;;;;;;5.97;5.47;;;9.30;1.00;10.10;68495.00;;;;5112329;28;20874;-81
2022/01/24 10:56:40;;;;;;;9.07;7.97;;;9.50;1.00;10.10;102266.00;;;;5110230;28;20912;-81
2022/01/24 10:59:21;;;;;;;6.43;3.40;;;9.60;1.00;217.30;161104.00;;;;5123219;27;20453;-81
2022/01/24 11:01:55;;;;;;;4.63;3.90;;;9.70;1.00;10.30;102273.00;;;;5112027;28;20536;-81
2022/01/24 11:04:26;;;;;;;8.03;3.10;;;9.70;1.00;10.20;102269.00;;;;5112292;28;20540;-82
2022/01/24 11:06:59;;;;;;;3.57;3.27;;;9.60;1.00;10.10;102261.00;;;;5111917;28;20440;-82
2022/01/24 11:09:30;;;;;;;5.73;3.73;;;9.40;1.00;9.90;102267.00;;;;5110290;28;20481;-81
2022/01/24 11:12:06;;;;;;;5.20;3.73;;;9.20;1.00;10.10;102256.00;;;;5108866;28;20447;-82
2022/01/24 11:14:36;;;;;;;3.40;3.10;;;9.40;1.00;10.20;102261.00;;;;5103357;28;20548;-81
2022/01/24 11:17:07;;;;;;;5.70;3.00;;;9.50;1.00;10.30;102260.00;;;;5110364;28;21335;-81
2022/01/24 11:19:40;;;;;;;4.40;3.30;;;9.70;1.00;10.50;102256.00;;;;5110485;28;20464;-81
2022/01/24 11:22:19;;;;;;;3.30;2.93;;;9.90;1.00;10.40;102248.00;;;;5111951;28;20540;-82
2022/01/24 11:24:55;;;;;;;5.60;3.70;;;9.80;1.00;10.50;102254.00;;;;5117611;28;20480;-82
2022/01/24 11:27:39;;;;;;;3.20;2.60;;;9.80;1.00;10.50;102270.00;;;;5128456;28;20429;-83
2022/01/24 11:30:13;;;;;;;4.20;2.73;;;9.90;1.00;10.40;102259.00;;;;5132995;28;20449;-83
2022/01/24 11:32:50;;;;;;;6.60;3.30;;;9.90;1.00;10.50;102257.00;;;;5132125;28;20441;-82
2022/01/24 11:35:35;;;;;;;4.47;3.00;;;10.00;1.00;10.40;102248.00;;;;5118843;28;20476;-81
2022/01/24 11:38:04;;;;;;;4.17;3.67;;;10.00;1.00;10.40;102243.00;;;;5119632;28;21445;-81
2022/01/24 11:40:46;;;;;;;5.00;2.73;;;9.90;1.00;10.40;102244.00;;;;5116261;28;20560;-82
2022/01/24 11:43:33;;;;;;;6.80;3.63;;;9.90;1.00;10.50;102065.00;;;;5116315;28;20477;-81
2022/01/24 11:46:06;;;;;;;3.17;2.60;;;10.00;1.00;10.50;102254.00;;;;5112501;28;20453;-83
2022/01/24 11:48:36;;;;;;;4.13;3.20;;;10.00;1.00;10.60;102243.00;;;;5112112;28;20445;-81
2022/01/24 11:51:09;;;;;;;3.80;3.50;;;10.00;1.00;10.60;102237.00;;;;5114125;28;20449;-80
2022/01/24 11:53:43;;;;;;;4.90;3.87;;;10.00;1.00;10.60;68614.00;;;;5117472;28;21014;-82
2022/01/24 11:56:25;;;;;;;4.10;3.10;;;10.00;1.00;10.60;102236.00;;;;5129119;28;20510;-84
2022/01/24 11:59:20;;;;;;;4.50;2.97;;;10.10;1.00;10.60;102245.00;;;;5144436;27;20465;-81
2022/01/24 12:01:54;;;;;;;3.60;3.30;;;10.00;1.00;10.60;68619.00;;;;5130709;28;20460;-81
2022/01/24 12:04:56;;;;;;;3.90;3.10;;;10.00;1.00;10.80;102229.00;;;;5129783;27;20476;-81
2022/01/24 12:07:27;;;;;;;4.47;3.03;;;10.10;1.00;10.80;102213.00;;;;5129376;27;20456;-81
2022/01/24 12:10:36;;;;;;;4.83;3.30;;;10.20;1.00;10.70;102225.00;;;;5120308;27;20471;-81
2022/01/24 12:13:13;;;;;;;3.27;2.50;;;10.10;1.00;10.60;102225.00;;;;5112427;28;20457;-82
2022/01/24 12:16:02;;;;;;;4.13;2.90;;;10.00;1.00;10.60;102219.00;;;;5128471;27;20448;-81
2022/01/24 12:19:02;;;;;;;3.37;2.90;;;9.90;1.00;10.70;102224.00;;;;5111735;28;20453;-82
2022/01/24 12:21:34;;;;;;;3.90;3.13;;;10.00;1.00;10.80;102208.00;;;;5109505;28;20492;-82
2022/01/24 12:24:10;;;;;;;5.00;3.17;;;10.20;1.00;10.80;102232.00;;;;5116220;28;20472;-83
2022/01/24 12:26:45;;;;;;;5.70;2.60;;;10.50;1.00;10.50;102223.00;;;;5132228;27;20504;-81
2022/01/24 12:29:25;;;;;;;3.00;2.63;;;9.80;1.00;10.40;102217.00;;;;5117818;28;20465;-81
2022/01/24 12:31:56;;;;;;;3.10;2.80;;;9.70;1.00;10.50;68581.00;;;;5119630;28;20468;-81
2022/01/24 12:34:32;;;;;;;3.00;2.60;;;9.70;1.00;217.30;161232.00;;;;5131332;28;20465;-81